Time;durP1;ratioP1;P1;durP2;ratioP2;P2;SDS_P1;SDS_P2;PMS_P1;PMS_P2;Temp;Humidity;BMP_temperature;BMP_pressure;BME280_temperature;BME280_humidity;BME280_pressure;Samples;Min_cycle;Max_cycle;Signal;HPM_P1;HPM_P2
2022/03/20 00:00:56;;;;;;;0.10;0.10;;;;;;;;;;4909339;29;20435;-91
2022/03/20 00:03:22;;;;;;;0.10;0.10;;;;;;;;;;4909092;29;20094;-92
2022/03/20 00:05:49;;;;;;;0.10;0.10;;;;;;;;;;4909116;29;20047;-90
2022/03/20 00:08:15;;;;;;;0.10;0.10;;;;;;;;;;4924569;29;20093;-90
2022/03/20 00:10:45;;;;;;;0.22;0.20;;;;;;;;;;4908957;29;20043;-90
2022/03/20 00:13:12;;;;;;;0.10;0.10;;;;;;;;;;4925357;29;20046;-90
2022/03/20 00:15:40;;;;;;;0.10;0.10;;;;;;;;;;4924440;29;20050;-90
2022/03/20 00:18:06;;;;;;;0.10;0.10;;;;;;;;;;4909083;29;20047;-92
2022/03/20 00:20:36;;;;;;;0.22;0.22;;;;;;;;;;4908865;29;20039;-91
2022/03/20 00:23:04;;;;;;;0.55;0.55;;;;;;;;;;4956386;29;20432;-92
2022/03/20 00:25:31;;;;;;;0.10;0.10;;;;;;;;;;4908494;29;20440;-91
2022/03/20 00:27:57;;;;;;;0.10;0.10;;;;;;;;;;4909187;29;20414;-91
2022/03/20 00:30:23;;;;;;;0.10;0.10;;;;;;;;;;4924414;29;20036;-91
2022/03/20 00:32:49;;;;;;;0.10;0.10;;;;;;;;;;4908504;29;20174;-92
2022/03/20 00:35:14;;;;;;;0.10;0.10;;;;;;;;;;4908594;29;20586;-92
2022/03/20 00:37:40;;;;;;;0.10;0.10;;;;;;;;;;4908724;29;20086;-92
2022/03/20 00:40:07;;;;;;;0.10;0.10;;;;;;;;;;4908841;29;20043;-91
2022/03/20 00:42:33;;;;;;;0.25;0.25;;;;;;;;;;4924176;29;20046;-90
2022/03/20 00:44:59;;;;;;;0.10;0.10;;;;;;;;;;4924299;29;20040;-90
2022/03/20 00:47:25;;;;;;;0.10;0.10;;;;;;;;;;4908338;29;20039;-92
2022/03/20 00:49:51;;;;;;;0.20;0.20;;;;;;;;;;4955658;29;20058;-92
2022/03/20 00:52:17;;;;;;;0.10;0.10;;;;;;;;;;4908662;29;20081;-93
2022/03/20 00:54:43;;;;;;;0.10;0.10;;;;;;;;;;4923884;28;20514;-91
2022/03/20 00:57:09;;;;;;;0.10;0.10;;;;;;;;;;4908398;29;20035;-91
2022/03/20 00:59:35;;;;;;;0.10;0.10;;;;;;;;;;4924145;29;20047;-91
2022/03/20 01:02:01;;;;;;;0.10;0.10;;;;;;;;;;4908049;29;20039;-91
2022/03/20 01:04:27;;;;;;;0.10;0.10;;;;;;;;;;4907826;28;20054;-91
2022/03/20 01:06:55;;;;;;;0.10;0.10;;;;;;;;;;4955271;29;20593;-91
2022/03/20 01:09:22;;;;;;;0.20;0.20;;;;;;;;;;4923405;29;20062;-91
2022/03/20 01:11:48;;;;;;;0.10;0.10;;;;;;;;;;4938747;29;20043;-91
2022/03/20 01:14:14;;;;;;;0.15;0.15;;;;;;;;;;4907690;29;20134;-91
2022/03/20 01:16:40;;;;;;;0.00;0.00;;;;;;;;;;4907552;29;20540;-92
2022/03/20 01:19:06;;;;;;;0.10;0.10;;;;;;;;;;4923816;29;20077;-93
2022/03/20 01:21:32;;;;;;;0.10;0.10;;;;;;;;;;4923793;29;20137;-92
2022/03/20 01:23:58;;;;;;;0.20;0.20;;;;;;;;;;4923818;29;20047;-93
2022/03/20 01:26:24;;;;;;;0.10;0.10;;;;;;;;;;4923549;29;20124;-93
2022/03/20 01:28:50;;;;;;;0.10;0.10;;;;;;;;;;4908082;29;20043;-93
2022/03/20 01:31:16;;;;;;;0.10;0.10;;;;;;;;;;4908160;29;20043;-93
2022/03/20 01:33:42;;;;;;;0.10;0.10;;;;;;;;;;4908180;29;20042;-92
2022/03/20 01:36:08;;;;;;;0.10;0.10;;;;;;;;;;4907442;29;20059;-92
2022/03/20 01:38:35;;;;;;;0.10;0.10;;;;;;;;;;4923886;29;20055;-93
2022/03/20 01:41:01;;;;;;;0.38;0.20;;;;;;;;;;4915250;29;20380;-93
2022/03/20 01:43:27;;;;;;;0.10;0.10;;;;;;;;;;4907926;29;20102;-92
2022/03/20 01:45:53;;;;;;;0.10;0.10;;;;;;;;;;4955129;28;20133;-92
2022/03/20 01:48:19;;;;;;;0.17;0.17;;;;;;;;;;4923257;29;20040;-92
2022/03/20 01:50:45;;;;;;;0.10;0.10;;;;;;;;;;4923241;29;20057;-91
2022/03/20 01:53:11;;;;;;;0.10;0.10;;;;;;;;;;4907230;29;20057;-92
2022/03/20 01:55:37;;;;;;;0.22;0.22;;;;;;;;;;4923061;29;20047;-92
2022/03/20 01:58:03;;;;;;;0.10;0.10;;;;;;;;;;4923201;29;20142;-92
2022/03/20 02:00:31;;;;;;;0.10;0.10;;;;;;;;;;4907232;29;20050;-93
2022/03/20 02:02:57;;;;;;;0.10;0.10;;;;;;;;;;4907760;29;20042;-92
2022/03/20 02:05:23;;;;;;;0.10;0.10;;;;;;;;;;4906301;29;20047;-90
2022/03/20 02:07:49;;;;;;;0.10;0.10;;;;;;;;;;4906821;29;20046;-90
2022/03/20 02:10:15;;;;;;;0.10;0.10;;;;;;;;;;4922273;29;20079;-90
2022/03/20 02:12:41;;;;;;;0.38;0.38;;;;;;;;;;4921967;29;20182;-90
2022/03/20 02:15:09;;;;;;;0.10;0.10;;;;;;;;;;4906231;29;20040;-90
2022/03/20 02:17:35;;;;;;;0.10;0.10;;;;;;;;;;4906772;29;20129;-91
2022/03/20 02:20:03;;;;;;;0.10;0.10;;;;;;;;;;4906213;29;20486;-91
2022/03/20 02:22:29;;;;;;;0.10;0.10;;;;;;;;;;4906599;29;20094;-91
2022/03/20 02:24:55;;;;;;;0.10;0.10;;;;;;;;;;4906738;29;20039;-90
2022/03/20 02:27:25;;;;;;;0.10;0.10;;;;;;;;;;4907207;29;20218;-91
2022/03/20 02:29:52;;;;;;;0.10;0.10;;;;;;;;;;4938391;29;20086;-91
2022/03/20 02:32:19;;;;;;;0.15;0.15;;;;;;;;;;4906666;29;20046;-91
2022/03/20 02:34:47;;;;;;;0.10;0.10;;;;;;;;;;4906391;28;20039;-92
2022/03/20 02:37:13;;;;;;;0.13;0.10;;;;;;;;;;4906644;29;20055;-92
2022/03/20 02:39:39;;;;;;;0.10;0.10;;;;;;;;;;4906746;29;20039;-93
2022/03/20 02:42:06;;;;;;;0.10;0.10;;;;;;;;;;4922043;29;20056;-91
2022/03/20 02:44:50;;;;;;;0.20;0.20;;;;;;;;;;4906807;28;20075;-91
2022/03/20 02:47:23;;;;;;;0.10;0.10;;;;;;;;;;4922411;29;20125;-91
2022/03/20 02:49:53;;;;;;;0.10;0.10;;;;;;;;;;4938314;29;20074;-92
2022/03/20 02:52:20;;;;;;;0.10;0.10;;;;;;;;;;4922579;29;20098;-92
2022/03/20 02:54:46;;;;;;;0.30;0.30;;;;;;;;;;4922384;28;20046;-91
2022/03/20 02:57:12;;;;;;;0.10;0.10;;;;;;;;;;4906143;29;20502;-92
2022/03/20 02:59:39;;;;;;;0.10;0.10;;;;;;;;;;4907321;29;20051;-92
2022/03/20 03:02:07;;;;;;;1.65;0.25;;;;;;;;;;4907099;29;20051;-92
2022/03/20 03:04:33;;;;;;;0.10;0.10;;;;;;;;;;4907196;28;20099;-92
2022/03/20 03:07:02;;;;;;;0.10;0.10;;;;;;;;;;4922000;29;20079;-91
2022/03/20 03:12:13;;;;;;;0.25;0.25;;;;;;;;;;4925602;29;20051;-92
2022/03/20 03:17:30;;;;;;;0.10;0.10;;;;;;;;;;4924649;29;20047;-92
2022/03/20 03:19:56;;;;;;;0.17;0.17;;;;;;;;;;4907078;29;20047;-90
2022/03/20 03:22:22;;;;;;;0.20;0.20;;;;;;;;;;4922281;29;20043;-92
2022/03/20 03:24:48;;;;;;;0.10;0.10;;;;;;;;;;4906415;28;20043;-92
2022/03/20 03:27:14;;;;;;;0.75;0.10;;;;;;;;;;4954030;29;20510;-92
2022/03/20 03:29:40;;;;;;;0.85;0.75;;;;;;;;;;4906435;29;20039;-91
2022/03/20 03:32:06;;;;;;;0.10;0.10;;;;;;;;;;4906800;29;20046;-91
2022/03/20 03:37:20;;;;;;;0.30;0.30;;;;;;;;;;4927653;29;20119;-92
2022/03/20 03:39:46;;;;;;;0.10;0.10;;;;;;;;;;4910332;29;20044;-92
2022/03/20 03:42:12;;;;;;;0.10;0.10;;;;;;;;;;4909828;29;20050;-90
2022/03/20 03:44:39;;;;;;;0.10;0.10;;;;;;;;;;4925263;28;20477;-91
2022/03/20 03:47:05;;;;;;;0.85;0.85;;;;;;;;;;4909732;29;20521;-92
2022/03/20 03:49:33;;;;;;;0.10;0.10;;;;;;;;;;4909760;29;20112;-93
2022/03/20 03:51:58;;;;;;;0.73;0.25;;;;;;;;;;4910176;29;20516;-92
2022/03/20 03:54:24;;;;;;;0.50;0.47;;;;;;;;;;4925290;29;20087;-92
2022/03/20 03:56:50;;;;;;;0.15;0.13;;;;;;;;;;4909425;29;20043;-93
2022/03/20 03:59:17;;;;;;;0.52;0.30;;;;;;;;;;4910272;29;20043;-91
2022/03/20 04:01:43;;;;;;;0.10;0.10;;;;;;;;;;4940828;29;20074;-92
2022/03/20 04:04:09;;;;;;;0.10;0.10;;;;;;;;;;4925230;29;20051;-92
2022/03/20 04:06:35;;;;;;;0.10;0.10;;;;;;;;;;4909199;29;20082;-92
2022/03/20 04:09:01;;;;;;;0.77;0.77;;;;;;;;;;4909353;29;20122;-92
2022/03/20 04:11:27;;;;;;;0.20;0.20;;;;;;;;;;4956737;29;20050;-92
2022/03/20 04:13:53;;;;;;;0.13;0.13;;;;;;;;;;4909352;29;20043;-92
2022/03/20 04:16:19;;;;;;;0.20;0.20;;;;;;;;;;4909151;29;20210;-92
2022/03/20 04:18:45;;;;;;;0.10;0.10;;;;;;;;;;4909661;29;20039;-92
2022/03/20 04:21:11;;;;;;;0.10;0.10;;;;;;;;;;4909089;29;20043;-91
2022/03/20 04:23:45;;;;;;;0.10;0.10;;;;;;;;;;4909095;29;20085;-91
2022/03/20 04:26:16;;;;;;;0.10;0.10;;;;;;;;;;4909985;29;20522;-91
2022/03/20 04:28:44;;;;;;;0.17;0.17;;;;;;;;;;4908373;29;20050;-91
2022/03/20 04:31:16;;;;;;;0.10;0.10;;;;;;;;;;4940033;29;20050;-91
2022/03/20 04:33:43;;;;;;;0.10;0.10;;;;;;;;;;4908580;29;20133;-91
2022/03/20 04:36:09;;;;;;;0.10;0.10;;;;;;;;;;4908389;29;20051;-90
2022/03/20 04:38:35;;;;;;;0.10;0.10;;;;;;;;;;4907960;29;20133;-92
2022/03/20 04:41:01;;;;;;;0.10;0.10;;;;;;;;;;4939986;29;20051;-92
2022/03/20 04:43:27;;;;;;;1.02;0.30;;;;;;;;;;4909003;29;20102;-92
2022/03/20 04:45:54;;;;;;;0.20;0.20;;;;;;;;;;4908365;28;20086;-92
2022/03/20 04:59:17;;;;;;;0.10;0.10;;;;;;;;;;4925778;29;20146;-91
2022/03/20 05:01:43;;;;;;;0.57;0.57;;;;;;;;;;4923890;29;20091;-91
2022/03/20 05:04:09;;;;;;;0.10;0.10;;;;;;;;;;4924145;29;20106;-91
2022/03/20 05:06:35;;;;;;;0.60;0.10;;;;;;;;;;4923957;29;20043;-91
2022/03/20 05:14:31;;;;;;;0.22;0.22;;;;;;;;;;4939034;28;20043;-90
2022/03/20 05:16:57;;;;;;;0.10;0.10;;;;;;;;;;4923140;29;20043;-90
2022/03/20 05:19:23;;;;;;;0.10;0.10;;;;;;;;;;4923285;29;20039;-89
2022/03/20 05:21:49;;;;;;;0.32;0.20;;;;;;;;;;4907509;29;20043;-90
2022/03/20 05:24:17;;;;;;;0.10;0.10;;;;;;;;;;4922956;29;20130;-90
2022/03/20 05:26:44;;;;;;;0.10;0.10;;;;;;;;;;4907300;29;20051;-90
2022/03/20 05:29:10;;;;;;;0.10;0.10;;;;;;;;;;4907727;29;20043;-91
2022/03/20 05:31:36;;;;;;;0.10;0.10;;;;;;;;;;4909157;29;20090;-91
2022/03/20 05:34:02;;;;;;;0.95;0.85;;;;;;;;;;4925074;29;20487;-91
2022/03/20 05:36:29;;;;;;;0.20;0.20;;;;;;;;;;4906166;29;20091;-92
2022/03/20 05:38:58;;;;;;;0.10;0.10;;;;;;;;;;4905381;29;20048;-90
2022/03/20 05:44:11;;;;;;;0.30;0.30;;;;;;;;;;4922432;29;20047;-91
2022/03/20 05:46:37;;;;;;;0.28;0.28;;;;;;;;;;4904467;29;20487;-91
2022/03/20 05:49:03;;;;;;;0.20;0.20;;;;;;;;;;4903947;29;20040;-90
2022/03/20 05:51:30;;;;;;;0.10;0.10;;;;;;;;;;4903753;29;20122;-90
2022/03/20 05:53:57;;;;;;;0.10;0.10;;;;;;;;;;4903491;29;20040;-89
2022/03/20 05:59:07;;;;;;;0.10;0.10;;;;;;;;;;4921595;29;20055;-90
2022/03/20 06:01:33;;;;;;;0.10;0.10;;;;;;;;;;4903093;29;20102;-90
2022/03/20 06:04:00;;;;;;;0.88;0.88;;;;;;;;;;4903475;29;20062;-90
2022/03/20 06:06:29;;;;;;;0.10;0.10;;;;;;;;;;4903881;29;20110;-91
2022/03/20 06:08:55;;;;;;;0.10;0.10;;;;;;;;;;4903804;29;20048;-91
2022/03/20 06:11:21;;;;;;;0.10;0.10;;;;;;;;;;4903753;29;20040;-90
2022/03/20 06:13:48;;;;;;;0.10;0.10;;;;;;;;;;4919333;29;20047;-89
2022/03/20 06:16:18;;;;;;;0.10;0.10;;;;;;;;;;4935039;29;20050;-90
2022/03/20 06:18:45;;;;;;;1.30;1.20;;;;;;;;;;4903490;29;20065;-90
2022/03/20 06:21:11;;;;;;;0.20;0.20;;;;;;;;;;4918952;29;20134;-91
2022/03/20 06:23:38;;;;;;;0.10;0.10;;;;;;;;;;4919237;29;20710;-91
2022/03/20 06:26:04;;;;;;;0.10;0.10;;;;;;;;;;4919160;29;20051;-90
2022/03/20 06:28:30;;;;;;;0.10;0.10;;;;;;;;;;4919150;29;20403;-90
2022/03/20 06:30:56;;;;;;;0.45;0.30;;;;;;;;;;4903430;29;20043;-90
2022/03/20 06:33:25;;;;;;;0.10;0.10;;;;;;;;;;4919266;29;20518;-91
2022/03/20 06:35:51;;;;;;;0.20;0.20;;;;;;;;;;4903573;29;20051;-91
2022/03/20 06:38:17;;;;;;;0.43;0.43;;;;;;;;;;4903775;29;20047;-92
2022/03/20 06:40:43;;;;;;;0.30;0.30;;;;;;;;;;4903984;29;20048;-92
2022/03/20 06:43:14;;;;;;;0.10;0.10;;;;;;;;;;4903289;29;20134;-93
2022/03/20 06:45:41;;;;;;;0.17;0.17;;;;;;;;;;4903077;29;20054;-91
2022/03/20 06:48:07;;;;;;;0.10;0.10;;;;;;;;;;4903467;29;20043;-91
2022/03/20 06:50:33;;;;;;;0.10;0.10;;;;;;;;;;4903336;29;20316;-91
2022/03/20 06:53:03;;;;;;;0.20;0.20;;;;;;;;;;4918861;29;20476;-91
2022/03/20 06:55:32;;;;;;;0.20;0.20;;;;;;;;;;4904374;29;20126;-92
2022/03/20 06:57:59;;;;;;;0.20;0.20;;;;;;;;;;4903362;29;20044;-90
2022/03/20 07:00:31;;;;;;;0.30;0.30;;;;;;;;;;4918892;29;20407;-89
2022/03/20 07:02:58;;;;;;;0.20;0.20;;;;;;;;;;4903617;29;20043;-90
2022/03/20 07:05:24;;;;;;;0.10;0.10;;;;;;;;;;4902633;29;20291;-90
2022/03/20 07:07:50;;;;;;;0.40;0.40;;;;;;;;;;4918702;29;20036;-91
2022/03/20 07:10:18;;;;;;;0.30;0.30;;;;;;;;;;4904246;29;20059;-91
2022/03/20 07:12:44;;;;;;;0.20;0.20;;;;;;;;;;4906587;29;20047;-91
2022/03/20 07:15:13;;;;;;;0.20;0.20;;;;;;;;;;4906914;29;20079;-91
2022/03/20 07:17:40;;;;;;;0.32;0.32;;;;;;;;;;4922099;29;20078;-90
2022/03/20 07:20:09;;;;;;;1.33;0.38;;;;;;;;;;4906709;29;20051;-89
2022/03/20 07:22:37;;;;;;;0.22;0.22;;;;;;;;;;4908173;29;20092;-89
2022/03/20 07:30:32;;;;;;;0.20;0.20;;;;;;;;;;4924397;29;20098;-89
2022/03/20 07:32:58;;;;;;;0.20;0.20;;;;;;;;;;4906569;29;20126;-89
2022/03/20 07:35:24;;;;;;;0.30;0.30;;;;;;;;;;4906956;29;20040;-88
2022/03/20 07:37:51;;;;;;;0.20;0.20;;;;;;;;;;4941125;29;20047;-89
2022/03/20 07:40:17;;;;;;;1.20;0.28;;;;;;;;;;4909280;29;20031;-89
2022/03/20 07:42:59;;;;;;;0.15;0.15;;;;;;;;;;4909423;29;20051;-90
2022/03/20 07:45:34;;;;;;;0.30;0.30;;;;;;;;;;4924624;29;20043;-89
2022/03/20 07:48:00;;;;;;;0.32;0.32;;;;;;;;;;4909875;29;20043;-85
2022/03/20 07:50:26;;;;;;;0.80;0.73;;;;;;;;;;4924500;29;20467;-88
2022/03/20 07:52:52;;;;;;;0.32;0.32;;;;;;;;;;4924821;29;20404;-88
2022/03/20 07:55:18;;;;;;;0.30;0.30;;;;;;;;;;4924384;29;20043;-88
2022/03/20 07:57:44;;;;;;;0.20;0.20;;;;;;;;;;4924499;29;20074;-88
2022/03/20 08:00:11;;;;;;;0.10;0.10;;;;;;;;;;4909031;29;20051;-88
2022/03/20 08:02:37;;;;;;;0.10;0.10;;;;;;;;;;4924069;29;20108;-88
2022/03/20 08:05:03;;;;;;;0.10;0.10;;;;;;;;;;4924837;29;20047;-88
2022/03/20 08:07:35;;;;;;;0.13;0.13;;;;;;;;;;4908444;29;20078;-88
2022/03/20 08:10:00;;;;;;;0.10;0.10;;;;;;;;;;4940009;29;20047;-88
2022/03/20 08:12:26;;;;;;;0.25;0.25;;;;;;;;;;4924126;29;20065;-88
2022/03/20 08:14:54;;;;;;;0.57;0.57;;;;;;;;;;4955714;28;20155;-89
2022/03/20 08:17:21;;;;;;;0.35;0.35;;;;;;;;;;4908875;29;20043;-89
2022/03/20 08:19:47;;;;;;;1.35;1.25;;;;;;;;;;4924194;29;20051;-89
2022/03/20 08:22:12;;;;;;;0.10;0.10;;;;;;;;;;4924599;29;20054;-90
2022/03/20 08:24:39;;;;;;;0.43;0.43;;;;;;;;;;4956464;28;20047;-91
2022/03/20 08:27:05;;;;;;;3.90;0.85;;;;;;;;;;4909033;29;20043;-90
2022/03/20 08:29:32;;;;;;;0.30;0.30;;;;;;;;;;4908113;29;20061;-89
2022/03/20 08:31:59;;;;;;;1.08;1.08;;;;;;;;;;4908983;29;20043;-91
2022/03/20 08:34:25;;;;;;;0.57;0.57;;;;;;;;;;4909270;29;20043;-91
2022/03/20 08:36:51;;;;;;;0.15;0.15;;;;;;;;;;4923695;29;20546;-90
2022/03/20 08:39:17;;;;;;;1.40;0.57;;;;;;;;;;4924235;29;20066;-90
2022/03/20 08:41:45;;;;;;;0.20;0.20;;;;;;;;;;4908643;29;20125;-90
2022/03/20 08:44:11;;;;;;;0.60;0.60;;;;;;;;;;4908590;29;20047;-88
2022/03/20 08:46:37;;;;;;;0.32;0.28;;;;;;;;;;4907498;29;20043;-88
2022/03/20 08:49:07;;;;;;;0.20;0.20;;;;;;;;;;4939032;29;20071;-89
2022/03/20 08:51:33;;;;;;;0.70;0.47;;;;;;;;;;4907688;29;20094;-88
2022/03/20 08:53:59;;;;;;;0.20;0.20;;;;;;;;;;4939482;29;20417;-90
2022/03/20 08:56:25;;;;;;;0.63;0.30;;;;;;;;;;4908024;29;20039;-89
2022/03/20 08:58:51;;;;;;;0.30;0.30;;;;;;;;;;4908017;29;20086;-92
2022/03/20 09:01:17;;;;;;;0.50;0.50;;;;;;;;;;4908057;29;20043;-91
2022/03/20 09:03:45;;;;;;;0.17;0.17;;;;;;;;;;4909557;29;20050;-91
2022/03/20 09:06:11;;;;;;;0.45;0.45;;;;;;;;;;4924006;29;20043;-93
2022/03/20 09:08:37;;;;;;;1.80;0.50;;;;;;;;;;4909307;29;20035;-91
2022/03/20 09:11:03;;;;;;;0.80;0.47;;;;;;;;;;4923265;29;20590;-92
2022/03/20 09:13:29;;;;;;;0.50;0.50;;;;;;;;;;4924039;29;20039;-89
2022/03/20 09:18:59;;;;;;;0.10;0.10;;;;;;;;;;4924912;29;20051;-89
2022/03/20 09:21:25;;;;;;;0.22;0.22;;;;;;;;;;4909680;29;20101;-89
2022/03/20 09:23:52;;;;;;;0.40;0.40;;;;;;;;;;4907407;29;20050;-91
2022/03/20 09:26:18;;;;;;;0.13;0.13;;;;;;;;;;4907086;29;20126;-92
2022/03/20 09:28:45;;;;;;;0.20;0.20;;;;;;;;;;4907367;29;20098;-89
2022/03/20 09:31:11;;;;;;;0.15;0.15;;;;;;;;;;4955300;29;20075;-92
2022/03/20 09:33:37;;;;;;;0.10;0.10;;;;;;;;;;4907720;29;20078;-92
2022/03/20 09:36:03;;;;;;;0.10;0.10;;;;;;;;;;4907775;29;20142;-94
2022/03/20 09:38:32;;;;;;;0.40;0.40;;;;;;;;;;4923418;29;20499;-92
2022/03/20 09:41:03;;;;;;;0.45;0.45;;;;;;;;;;4923317;29;20078;-88
2022/03/20 09:43:31;;;;;;;0.65;0.20;;;;;;;;;;4907958;29;20039;-92
2022/03/20 09:45:57;;;;;;;0.32;0.32;;;;;;;;;;4922988;29;20483;-91
2022/03/20 09:48:23;;;;;;;0.25;0.25;;;;;;;;;;4907905;29;20058;-93
2022/03/20 09:50:49;;;;;;;0.20;0.20;;;;;;;;;;4907818;29;20039;-93
2022/03/20 09:53:15;;;;;;;0.10;0.10;;;;;;;;;;4907332;29;20047;-94
2022/03/20 09:55:42;;;;;;;0.30;0.20;;;;;;;;;;4923629;29;20035;-92
2022/03/20 09:58:08;;;;;;;0.40;0.30;;;;;;;;;;4907483;29;20039;-94
2022/03/20 10:00:34;;;;;;;0.47;0.40;;;;;;;;;;4907583;29;20047;-92
2022/03/20 10:03:14;;;;;;;1.17;0.45;;;;;;;;;;4906658;29;20036;-92
2022/03/20 10:05:39;;;;;;;0.22;0.22;;;;;;;;;;4906973;29;20058;-93
2022/03/20 10:08:10;;;;;;;0.40;0.40;;;;;;;;;;4906780;29;20126;-91
2022/03/20 10:10:36;;;;;;;0.10;0.10;;;;;;;;;;4907615;29;20043;-95
2022/03/20 10:13:04;;;;;;;0.47;0.47;;;;;;;;;;4907636;29;20047;-93
2022/03/20 10:15:31;;;;;;;0.20;0.20;;;;;;;;;;4923315;29;20047;-92
2022/03/20 10:18:07;;;;;;;0.20;0.20;;;;;;;;;;4908193;29;20035;-91
2022/03/20 10:20:44;;;;;;;0.20;0.20;;;;;;;;;;4922525;29;20038;-91
2022/03/20 10:23:32;;;;;;;0.82;0.82;;;;;;;;;;4907779;29;20038;-93
2022/03/20 10:25:59;;;;;;;0.30;0.30;;;;;;;;;;4923250;29;20460;-90
2022/03/20 10:28:25;;;;;;;0.40;0.40;;;;;;;;;;4922452;29;20047;-90
2022/03/20 10:31:01;;;;;;;0.63;0.63;;;;;;;;;;4906461;29;20122;-91
2022/03/20 10:33:27;;;;;;;0.82;0.82;;;;;;;;;;4906787;29;20049;-88
2022/03/20 10:36:09;;;;;;;0.80;0.80;;;;;;;;;;4922054;29;20086;-90
2022/03/20 10:38:37;;;;;;;0.20;0.20;;;;;;;;;;4923266;29;20091;-93
2022/03/20 10:41:16;;;;;;;0.75;0.75;;;;;;;;;;4908088;29;20047;-92
2022/03/20 10:43:43;;;;;;;0.55;0.52;;;;;;;;;;4907552;28;20047;-90
2022/03/20 10:46:10;;;;;;;0.70;0.57;;;;;;;;;;4941010;29;20054;-92
2022/03/20 10:48:37;;;;;;;0.57;0.52;;;;;;;;;;4911361;29;20054;-91
2022/03/20 10:51:03;;;;;;;0.28;0.25;;;;;;;;;;4911210;29;20051;-93
2022/03/20 10:53:29;;;;;;;0.93;0.47;;;;;;;;;;4911142;29;20078;-94
2022/03/20 10:55:56;;;;;;;0.25;0.17;;;;;;;;;;4913370;29;20046;-95
2022/03/20 10:58:24;;;;;;;0.28;0.28;;;;;;;;;;4911563;29;20078;-92
2022/03/20 11:00:51;;;;;;;0.35;0.30;;;;;;;;;;4911224;29;20514;-93
2022/03/20 11:03:22;;;;;;;0.55;0.55;;;;;;;;;;4910748;29;20132;-92
2022/03/20 11:05:48;;;;;;;0.57;0.57;;;;;;;;;;4911652;29;20058;-92
2022/03/20 11:08:15;;;;;;;0.68;0.68;;;;;;;;;;4910500;29;20039;-92
2022/03/20 11:10:44;;;;;;;0.25;0.25;;;;;;;;;;4927324;29;20156;-94
2022/03/20 11:13:10;;;;;;;0.20;0.20;;;;;;;;;;4942200;29;20046;-90
2022/03/20 11:15:37;;;;;;;0.25;0.25;;;;;;;;;;4909894;29;20090;-94
2022/03/20 11:18:03;;;;;;;2.63;0.65;;;;;;;;;;4911427;29;20126;-93
2022/03/20 11:20:29;;;;;;;0.65;0.65;;;;;;;;;;4906687;29;20040;-94
2022/03/20 11:22:55;;;;;;;0.50;0.50;;;;;;;;;;4910718;28;20554;-94
2022/03/20 11:25:25;;;;;;;0.40;0.40;;;;;;;;;;4945495;28;20097;-92
2022/03/20 11:27:55;;;;;;;0.20;0.20;;;;;;;;;;4929286;28;20715;-91
2022/03/20 11:30:27;;;;;;;0.52;0.52;;;;;;;;;;4929292;29;20047;-93
2022/03/20 11:32:54;;;;;;;0.30;0.30;;;;;;;;;;4926308;29;20039;-93
2022/03/20 11:35:25;;;;;;;3.38;1.13;;;;;;;;;;4935058;28;20468;-92
2022/03/20 11:37:54;;;;;;;1.27;1.27;;;;;;;;;;4945959;28;20463;-93
2022/03/20 11:40:22;;;;;;;0.32;0.32;;;;;;;;;;4946063;28;20043;-93
2022/03/20 11:42:51;;;;;;;0.75;0.75;;;;;;;;;;4949404;28;20039;-94
2022/03/20 11:45:20;;;;;;;0.85;0.75;;;;;;;;;;4952754;28;20085;-94
2022/03/20 11:47:52;;;;;;;1.88;0.43;;;;;;;;;;4935308;29;20490;-96
2022/03/20 11:50:19;;;;;;;1.75;1.13;;;;;;;;;;4914356;29;20069;-92
2022/03/20 11:52:54;;;;;;;0.85;0.63;;;;;;;;;;4929132;29;20031;-94
2022/03/20 11:55:40;;;;;;;0.20;0.20;;;;;;;;;;4930796;28;20084;-94
2022/03/20 11:58:21;;;;;;;1.00;0.47;;;;;;;;;;4930386;29;20039;-93
2022/03/20 12:01:03;;;;;;;0.73;0.73;;;;;;;;;;4930156;29;20039;-92
2022/03/20 12:04:07;;;;;;;0.30;0.30;;;;;;;;;;4931030;29;20488;-95
2022/03/20 12:06:58;;;;;;;1.20;0.95;;;;;;;;;;4929637;29;20114;-96
2022/03/20 12:09:27;;;;;;;0.15;0.15;;;;;;;;;;4929290;29;20095;-93
2022/03/20 12:11:53;;;;;;;1.20;1.08;;;;;;;;;;4948337;29;20058;-93
2022/03/20 12:14:32;;;;;;;0.50;0.50;;;;;;;;;;4932245;29;20403;-93
2022/03/20 12:16:59;;;;;;;0.85;0.85;;;;;;;;;;4930860;29;20047;-94
2022/03/20 12:19:38;;;;;;;0.63;0.57;;;;;;;;;;4929145;29;20094;-96
2022/03/20 12:22:15;;;;;;;0.20;0.20;;;;;;;;;;4925531;29;20106;-92
2022/03/20 12:24:54;;;;;;;0.40;0.40;;;;;;;;;;4924976;28;20035;-92
2022/03/20 12:27:23;;;;;;;0.60;0.38;;;;;;;;;;4925668;29;20094;-94
2022/03/20 12:30:08;;;;;;;0.40;0.40;;;;;;;;;;4925581;29;20098;-93
2022/03/20 12:32:52;;;;;;;0.20;0.20;;;;;;;;;;4925129;29;20502;-93
2022/03/20 12:35:22;;;;;;;0.17;0.17;;;;;;;;;;4924145;29;20047;-93
2022/03/20 12:37:48;;;;;;;0.63;0.63;;;;;;;;;;4925833;29;20067;-93
2022/03/20 12:40:21;;;;;;;0.25;0.25;;;;;;;;;;4925154;29;20138;-93
2022/03/20 12:43:15;;;;;;;0.30;0.30;;;;;;;;;;4924572;29;20042;-92
2022/03/20 12:45:43;;;;;;;0.73;0.73;;;;;;;;;;4938385;29;20055;-92
2022/03/20 12:48:13;;;;;;;0.10;0.10;;;;;;;;;;4924993;29;20046;-92
2022/03/20 12:50:44;;;;;;;3.20;0.82;;;;;;;;;;4925047;29;20340;-93
2022/03/20 12:53:16;;;;;;;1.20;1.10;;;;;;;;;;4924755;29;20041;-92
2022/03/20 12:55:42;;;;;;;0.50;0.50;;;;;;;;;;4924929;29;20039;-93
2022/03/20 12:58:14;;;;;;;0.38;0.38;;;;;;;;;;4924806;29;20062;-94
2022/03/20 13:00:41;;;;;;;0.25;0.22;;;;;;;;;;4924986;29;20392;-94
2022/03/20 13:03:10;;;;;;;0.55;0.55;;;;;;;;;;4925207;29;20150;-93
2022/03/20 13:05:58;;;;;;;0.20;0.20;;;;;;;;;;4924821;29;20035;-93
2022/03/20 13:08:50;;;;;;;0.57;0.45;;;;;;;;;;4927560;29;20050;-93
2022/03/20 13:14:05;;;;;;;0.65;0.55;;;;;;;;;;4929212;29;20043;-94
2022/03/20 13:16:34;;;;;;;1.10;1.05;;;;;;;;;;4924754;29;20041;-93
2022/03/20 13:19:00;;;;;;;1.05;0.95;;;;;;;;;;4924983;29;20051;-94
2022/03/20 13:21:26;;;;;;;1.25;0.50;;;;;;;;;;4926016;29;20056;-94
2022/03/20 13:23:56;;;;;;;0.20;0.20;;;;;;;;;;4925446;29;20042;-93
2022/03/20 13:26:22;;;;;;;1.55;0.43;;;;;;;;;;4925772;29;20082;-95
2022/03/20 13:28:48;;;;;;;0.52;0.32;;;;;;;;;;4926515;29;20044;-93
2022/03/20 13:31:16;;;;;;;1.33;1.23;;;;;;;;;;4944856;28;20449;-93
2022/03/20 13:33:45;;;;;;;0.30;0.30;;;;;;;;;;4943600;28;20039;-94
2022/03/20 13:36:11;;;;;;;0.55;0.55;;;;;;;;;;4944353;28;20049;-94
2022/03/20 13:38:44;;;;;;;0.98;0.73;;;;;;;;;;4927804;28;20106;-92
2022/03/20 13:41:18;;;;;;;1.35;1.25;;;;;;;;;;4942744;28;20042;-93
2022/03/20 13:43:44;;;;;;;0.77;0.77;;;;;;;;;;4943118;28;20043;-93
2022/03/20 13:46:11;;;;;;;1.38;0.55;;;;;;;;;;4926983;28;20042;-92
2022/03/20 13:48:37;;;;;;;1.30;0.50;;;;;;;;;;4926588;28;20078;-94
2022/03/20 13:51:04;;;;;;;1.02;1.02;;;;;;;;;;4926840;28;20046;-93
2022/03/20 13:53:30;;;;;;;0.40;0.40;;;;;;;;;;4942711;28;20038;-93
2022/03/20 13:55:56;;;;;;;1.95;0.50;;;;;;;;;;4930648;29;20506;-91
2022/03/20 13:58:22;;;;;;;0.40;0.40;;;;;;;;;;4923421;29;20058;-92
2022/03/20 14:00:49;;;;;;;0.43;0.30;;;;;;;;;;4923655;29;20055;-93
2022/03/20 14:03:25;;;;;;;0.63;0.63;;;;;;;;;;4923184;29;20047;-92
2022/03/20 14:05:51;;;;;;;2.97;1.20;;;;;;;;;;4923348;29;20121;-91
2022/03/20 14:08:17;;;;;;;1.38;1.38;;;;;;;;;;4922962;29;20061;-92
2022/03/20 14:10:47;;;;;;;0.40;0.28;;;;;;;;;;4923444;29;20039;-92
2022/03/20 14:13:18;;;;;;;0.85;0.85;;;;;;;;;;4923530;29;20150;-92
2022/03/20 14:16:15;;;;;;;0.20;0.20;;;;;;;;;;4924277;29;20039;-94
2022/03/20 14:18:44;;;;;;;0.88;0.88;;;;;;;;;;4937835;28;20051;-96
2022/03/20 14:21:20;;;;;;;0.30;0.30;;;;;;;;;;4943661;29;20043;-93
2022/03/20 14:23:52;;;;;;;0.82;0.77;;;;;;;;;;4924231;29;20054;-94
2022/03/20 14:26:19;;;;;;;0.70;0.68;;;;;;;;;;4923783;29;20098;-93
2022/03/20 14:28:45;;;;;;;0.25;0.25;;;;;;;;;;4923002;29;20051;-95
2022/03/20 14:39:28;;;;;;;0.47;0.47;;;;;;;;;;4921875;29;20047;-95
2022/03/20 14:41:57;;;;;;;0.57;0.57;;;;;;;;;;4904482;29;20052;-95
2022/03/20 14:44:28;;;;;;;0.52;0.52;;;;;;;;;;4905153;29;20055;-93
2022/03/20 14:47:00;;;;;;;2.20;1.75;;;;;;;;;;4904246;29;20051;-94
2022/03/20 14:49:30;;;;;;;0.35;0.35;;;;;;;;;;4923568;29;20043;-91
2022/03/20 14:51:56;;;;;;;0.17;0.17;;;;;;;;;;4903826;29;20075;-93
2022/03/20 14:54:23;;;;;;;0.20;0.20;;;;;;;;;;4904585;29;20051;-94
2022/03/20 14:56:49;;;;;;;0.85;0.30;;;;;;;;;;4901310;29;20036;-92
2022/03/20 14:59:15;;;;;;;0.38;0.38;;;;;;;;;;4896909;29;20067;-90
2022/03/20 15:01:43;;;;;;;0.55;0.35;;;;;;;;;;4900986;29;20044;-91
2022/03/20 15:04:11;;;;;;;0.40;0.30;;;;;;;;;;4885007;29;20075;-91
2022/03/20 15:06:39;;;;;;;0.93;0.40;;;;;;;;;;4885352;29;20568;-94
2022/03/20 15:11:50;;;;;;;0.30;0.30;;;;;;;;;;4903095;29;20054;-92
2022/03/20 15:14:16;;;;;;;0.40;0.40;;;;;;;;;;4884959;29;20044;-93
2022/03/20 15:16:42;;;;;;;1.55;0.77;;;;;;;;;;4884957;29;20449;-92
2022/03/20 15:19:08;;;;;;;0.95;0.65;;;;;;;;;;4886323;29;20040;-93
2022/03/20 15:21:34;;;;;;;0.60;0.60;;;;;;;;;;4885427;29;20051;-93
2022/03/20 15:24:03;;;;;;;0.50;0.50;;;;;;;;;;4901611;29;20044;-95
2022/03/20 15:26:29;;;;;;;3.17;0.75;;;;;;;;;;4901467;29;20076;-93
2022/03/20 15:28:55;;;;;;;0.60;0.60;;;;;;;;;;4885206;29;20139;-95
2022/03/20 15:31:22;;;;;;;0.40;0.40;;;;;;;;;;4919197;29;20428;-92
2022/03/20 15:33:48;;;;;;;2.22;1.05;;;;;;;;;;4942154;29;20244;-96
2022/03/20 15:36:15;;;;;;;0.98;0.98;;;;;;;;;;4947272;28;20083;-96
2022/03/20 15:38:41;;;;;;;0.38;0.38;;;;;;;;;;4948628;29;20138;-96
2022/03/20 15:41:09;;;;;;;0.30;0.30;;;;;;;;;;4938952;29;20051;-94